sensor_id;sensor_type;location;lat;lon;timestamp;pressure;altitude;pressure_sealevel;temperature;humidity
57376;BME280;44805;45.048;5.062;2023-04-16T00:00:04;99920.00;;;10.17;94.77
57376;BME280;44805;45.048;5.062;2023-04-16T00:02:30;99925.84;;;10.21;94.78
57376;BME280;44805;45.048;5.062;2023-04-16T00:04:55;99933.88;;;10.19;94.33
57376;BME280;44805;45.048;5.062;2023-04-16T00:07:20;99937.19;;;10.21;93.56
57376;BME280;44805;45.048;5.062;2023-04-16T00:09:46;99931.63;;;10.25;92.59
57376;BME280;44805;45.048;5.062;2023-04-16T00:12:11;99928.88;;;10.26;93.47
57376;BME280;44805;45.048;5.062;2023-04-16T00:14:36;99926.13;;;10.28;93.20
57376;BME280;44805;45.048;5.062;2023-04-16T00:20:05;99931.94;;;10.12;91.88
57376;BME280;44805;45.048;5.062;2023-04-16T00:22:30;99929.19;;;10.13;91.05
57376;BME280;44805;45.048;5.062;2023-04-16T00:24:55;99925.84;;;10.11;90.40
57376;BME280;44805;45.048;5.062;2023-04-16T00:27:21;99923.78;;;10.05;91.04
57376;BME280;44805;45.048;5.062;2023-04-16T00:29:46;99916.03;;;10.13;89.91
57376;BME280;44805;45.048;5.062;2023-04-16T00:32:12;99910.66;;;10.05;90.18
57376;BME280;44805;45.048;5.062;2023-04-16T00:34:37;99919.47;;;10.04;90.35
57376;BME280;44805;45.048;5.062;2023-04-16T00:37:02;99916.72;;;9.96;90.06
57376;BME280;44805;45.048;5.062;2023-04-16T00:39:27;99928.25;;;9.95;88.69
57376;BME280;44805;45.048;5.062;2023-04-16T00:41:53;99934.44;;;9.94;89.64
57376;BME280;44805;45.048;5.062;2023-04-16T00:44:18;99943.03;;;9.96;88.59
57376;BME280;44805;45.048;5.062;2023-04-16T00:46:44;99939.44;;;9.97;88.88
57376;BME280;44805;45.048;5.062;2023-04-16T00:49:10;99936.94;;;9.95;89.62
57376;BME280;44805;45.048;5.062;2023-04-16T00:51:35;99932.94;;;9.91;89.20
57376;BME280;44805;45.048;5.062;2023-04-16T00:54:01;99936.13;;;9.95;89.75
57376;BME280;44805;45.048;5.062;2023-04-16T00:56:27;99947.47;;;10.05;88.34
57376;BME280;44805;45.048;5.062;2023-04-16T00:58:53;99951.63;;;9.98;89.70
57376;BME280;44805;45.048;5.062;2023-04-16T01:01:18;99946.66;;;9.95;87.97
57376;BME280;44805;45.048;5.062;2023-04-16T01:03:46;99947.34;;;9.87;89.13
57376;BME280;44805;45.048;5.062;2023-04-16T01:06:13;99940.81;;;9.82;90.18
57376;BME280;44805;45.048;5.062;2023-04-16T01:08:38;99934.59;;;9.83;90.29
57376;BME280;44805;45.048;5.062;2023-04-16T01:11:04;99938.59;;;9.87;90.90
57376;BME280;44805;45.048;5.062;2023-04-16T01:13:29;99940.16;;;9.80;91.23
57376;BME280;44805;45.048;5.062;2023-04-16T01:15:55;99934.72;;;9.71;91.15
57376;BME280;44805;45.048;5.062;2023-04-16T01:18:20;99929.91;;;9.57;93.07
57376;BME280;44805;45.048;5.062;2023-04-16T01:20:46;99937.47;;;9.50;94.02
57376;BME280;44805;45.048;5.062;2023-04-16T01:23:11;99929.75;;;9.68;93.02
57376;BME280;44805;45.048;5.062;2023-04-16T01:25:37;99946.63;;;9.66;92.43
57376;BME280;44805;45.048;5.062;2023-04-16T01:28:02;99936.38;;;9.53;93.11
57376;BME280;44805;45.048;5.062;2023-04-16T01:30:29;99947.03;;;9.51;93.36
57376;BME280;44805;45.048;5.062;2023-04-16T01:32:55;99947.19;;;9.50;95.54
57376;BME280;44805;45.048;5.062;2023-04-16T01:35:23;99963.34;;;9.45;94.69
57376;BME280;44805;45.048;5.062;2023-04-16T01:37:49;99957.41;;;9.53;95.05
57376;BME280;44805;45.048;5.062;2023-04-16T01:40:16;99958.38;;;9.52;94.52
57376;BME280;44805;45.048;5.062;2023-04-16T01:42:42;99954.50;;;9.56;94.49
57376;BME280;44805;45.048;5.062;2023-04-16T01:45:10;99949.94;;;9.48;95.16
57376;BME280;44805;45.048;5.062;2023-04-16T01:47:37;99949.78;;;9.40;95.50
57376;BME280;44805;45.048;5.062;2023-04-16T01:50:04;99943.97;;;9.46;95.43
57376;BME280;44805;45.048;5.062;2023-04-16T01:52:32;99946.63;;;9.56;96.44
57376;BME280;44805;45.048;5.062;2023-04-16T01:55:00;99942.06;;;9.58;95.31
57376;BME280;44805;45.048;5.062;2023-04-16T01:57:25;99942.03;;;9.48;95.99
57376;BME280;44805;45.048;5.062;2023-04-16T01:59:53;99936.94;;;9.56;94.92
57376;BME280;44805;45.048;5.062;2023-04-16T02:02:20;99926.97;;;9.41;95.91
57376;BME280;44805;45.048;5.062;2023-04-16T02:05:08;99937.34;;;9.52;96.28
57376;BME280;44805;45.048;5.062;2023-04-16T02:07:34;99943.97;;;9.46;95.48
57376;BME280;44805;45.048;5.062;2023-04-16T02:10:00;99936.53;;;9.42;96.90
57376;BME280;44805;45.048;5.062;2023-04-16T02:12:25;99926.69;;;9.44;96.58
57376;BME280;44805;45.048;5.062;2023-04-16T02:14:52;99930.84;;;9.46;95.52
57376;BME280;44805;45.048;5.062;2023-04-16T02:17:18;99924.59;;;9.38;95.29
57376;BME280;44805;45.048;5.062;2023-04-16T02:19:43;99925.31;;;9.40;96.48
57376;BME280;44805;45.048;5.062;2023-04-16T02:22:08;99921.28;;;9.35;97.04
57376;BME280;44805;45.048;5.062;2023-04-16T02:24:34;99929.44;;;9.32;96.31
57376;BME280;44805;45.048;5.062;2023-04-16T02:26:59;99923.63;;;9.39;96.51
57376;BME280;44805;45.048;5.062;2023-04-16T02:29:25;99926.94;;;9.21;97.39
57376;BME280;44805;45.048;5.062;2023-04-16T02:35:01;99927.22;;;9.28;98.21
57376;BME280;44805;45.048;5.062;2023-04-16T02:37:31;99926.94;;;9.21;98.23
57376;BME280;44805;45.048;5.062;2023-04-16T02:39:57;99924.19;;;9.32;96.01
57376;BME280;44805;45.048;5.062;2023-04-16T02:42:25;99925.56;;;9.27;97.63
57376;BME280;44805;45.048;5.062;2023-04-16T02:44:50;99918.66;;;9.35;96.43
57376;BME280;44805;45.048;5.062;2023-04-16T02:53:02;99934.41;;;9.35;96.59
57376;BME280;44805;45.048;5.062;2023-04-16T02:55:28;99951.16;;;9.34;95.99
57376;BME280;44805;45.048;5.062;2023-04-16T02:57:53;99937.44;;;9.31;96.34
57376;BME280;44805;45.048;5.062;2023-04-16T03:00:28;99940.78;;;9.33;94.37
57376;BME280;44805;45.048;5.062;2023-04-16T03:15:39;99934.16;;;9.29;95.03
57376;BME280;44805;45.048;5.062;2023-04-16T03:21:08;99942.16;;;9.27;94.09
57376;BME280;44805;45.048;5.062;2023-04-16T03:23:33;99943.13;;;9.36;92.51
57376;BME280;44805;45.048;5.062;2023-04-16T03:25:59;99950.03;;;9.27;93.17
57376;BME280;44805;45.048;5.062;2023-04-16T03:28:25;99951.28;;;9.33;92.10
57376;BME280;44805;45.048;5.062;2023-04-16T03:30:51;99956.38;;;9.25;93.90
57376;BME280;44805;45.048;5.062;2023-04-16T03:36:19;99961.88;;;9.12;94.04
57376;BME280;44805;45.048;5.062;2023-04-16T03:38:45;99966.03;;;9.15;94.06
57376;BME280;44805;45.048;5.062;2023-04-16T03:41:10;99960.66;;;9.16;92.49
57376;BME280;44805;45.048;5.062;2023-04-16T03:43:35;99966.97;;;9.04;93.28
57376;BME280;44805;45.048;5.062;2023-04-16T03:46:01;99963.97;;;9.08;92.77
57376;BME280;44805;45.048;5.062;2023-04-16T03:48:26;99965.06;;;9.06;93.05
57376;BME280;44805;45.048;5.062;2023-04-16T03:50:51;99972.50;;;9.01;92.67
57376;BME280;44805;45.048;5.062;2023-04-16T03:53:17;99965.44;;;9.01;92.58
57376;BME280;44805;45.048;5.062;2023-04-16T03:55:44;99962.56;;;9.04;92.65
57376;BME280;44805;45.048;5.062;2023-04-16T03:58:13;99966.81;;;8.96;93.69
57376;BME280;44805;45.048;5.062;2023-04-16T04:00:40;99971.88;;;8.87;93.22
57376;BME280;44805;45.048;5.062;2023-04-16T04:06:08;99959.44;;;8.89;93.66
57376;BME280;44805;45.048;5.062;2023-04-16T04:08:40;99974.50;;;8.87;92.71
57376;BME280;44805;45.048;5.062;2023-04-16T04:11:21;99971.06;;;8.87;93.46
57376;BME280;44805;45.048;5.062;2023-04-16T04:13:54;99971.19;;;8.85;92.43
57376;BME280;44805;45.048;5.062;2023-04-16T04:17:04;99980.56;;;8.78;93.86
57376;BME280;44805;45.048;5.062;2023-04-16T04:19:31;99982.38;;;8.87;92.00
57376;BME280;44805;45.048;5.062;2023-04-16T04:21:59;99988.69;;;8.75;93.52
57376;BME280;44805;45.048;5.062;2023-04-16T04:24:24;99988.28;;;8.80;93.70
57376;BME280;44805;45.048;5.062;2023-04-16T04:26:51;99981.81;;;8.84;92.66
57376;BME280;44805;45.048;5.062;2023-04-16T04:29:16;99983.88;;;8.80;93.29
57376;BME280;44805;45.048;5.062;2023-04-16T04:31:41;99982.97;;;8.70;92.63
57376;BME280;44805;45.048;5.062;2023-04-16T04:34:07;99984.50;;;8.63;92.83
57376;BME280;44805;45.048;5.062;2023-04-16T04:36:32;99988.66;;;8.65;93.40
57376;BME280;44805;45.048;5.062;2023-04-16T04:38:59;99989.28;;;8.58;94.10
57376;BME280;44805;45.048;5.062;2023-04-16T04:41:24;99992.16;;;8.55;94.39
57376;BME280;44805;45.048;5.062;2023-04-16T04:43:51;99997.94;;;8.48;94.92
57376;BME280;44805;45.048;5.062;2023-04-16T04:46:16;100000.47;;;8.60;94.45
57376;BME280;44805;45.048;5.062;2023-04-16T04:51:34;100004.34;;;8.56;94.36
57376;BME280;44805;45.048;5.062;2023-04-16T04:54:00;100011.41;;;8.65;93.39
57376;BME280;44805;45.048;5.062;2023-04-16T04:56:25;100013.41;;;8.52;93.69
57376;BME280;44805;45.048;5.062;2023-04-16T04:58:53;100007.72;;;8.46;93.49
57376;BME280;44805;45.048;5.062;2023-04-16T05:01:20;100009.59;;;8.56;93.96
57376;BME280;44805;45.048;5.062;2023-04-16T05:03:45;100016.19;;;8.50;93.76
57376;BME280;44805;45.048;5.062;2023-04-16T05:06:12;100006.13;;;8.55;93.55
57376;BME280;44805;45.048;5.062;2023-04-16T05:08:39;100014.66;;;8.47;93.00
57376;BME280;44805;45.048;5.062;2023-04-16T05:11:04;100014.31;;;8.62;91.73
57376;BME280;44805;45.048;5.062;2023-04-16T05:13:30;100010.06;;;8.50;93.15
57376;BME280;44805;45.048;5.062;2023-04-16T05:15:57;100022.88;;;8.64;91.70
57376;BME280;44805;45.048;5.062;2023-04-16T05:21:10;100035.22;;;8.52;91.93
57376;BME280;44805;45.048;5.062;2023-04-16T05:23:35;100032.56;;;8.63;91.55
57376;BME280;44805;45.048;5.062;2023-04-16T05:26:00;100030.94;;;8.72;92.00
57376;BME280;44805;45.048;5.062;2023-04-16T05:28:27;100041.06;;;8.56;92.34
57376;BME280;44805;45.048;5.062;2023-04-16T05:30:55;100026.47;;;8.63;90.38
57376;BME280;44805;45.048;5.062;2023-04-16T05:36:25;100028.00;;;8.86;91.22
57376;BME280;44805;45.048;5.062;2023-04-16T05:39:02;100044.19;;;8.91;91.20
57376;BME280;44805;45.048;5.062;2023-04-16T05:41:28;100048.44;;;8.83;90.55
57376;BME280;44805;45.048;5.062;2023-04-16T05:43:53;100048.56;;;8.81;90.25
57376;BME280;44805;45.048;5.062;2023-04-16T05:46:22;100042.53;;;8.69;91.15
57376;BME280;44805;45.048;5.062;2023-04-16T05:51:59;100043.13;;;8.73;91.58
57376;BME280;44805;45.048;5.062;2023-04-16T05:54:43;100054.44;;;8.74;90.79
57376;BME280;44805;45.048;5.062;2023-04-16T05:57:17;100047.66;;;8.71;91.55
57376;BME280;44805;45.048;5.062;2023-04-16T05:59:52;100047.13;;;8.77;90.79
57376;BME280;44805;45.048;5.062;2023-04-16T06:02:22;100050.53;;;8.89;90.34
57376;BME280;44805;45.048;5.062;2023-04-16T06:04:49;100042.97;;;8.96;89.94
57376;BME280;44805;45.048;5.062;2023-04-16T06:07:16;100054.09;;;9.09;87.84
57376;BME280;44805;45.048;5.062;2023-04-16T06:09:42;100048.63;;;9.22;88.13
57376;BME280;44805;45.048;5.062;2023-04-16T06:12:07;100053.03;;;9.21;87.13
57376;BME280;44805;45.048;5.062;2023-04-16T06:14:34;100062.19;;;9.27;87.46
57376;BME280;44805;45.048;5.062;2023-04-16T06:20:25;100062.22;;;9.37;86.79
57376;BME280;44805;45.048;5.062;2023-04-16T06:22:50;100059.59;;;9.37;86.63
57376;BME280;44805;45.048;5.062;2023-04-16T06:28:12;100071.22;;;9.44;85.43
57376;BME280;44805;45.048;5.062;2023-04-16T06:30:37;100065.88;;;9.55;84.24
57376;BME280;44805;45.048;5.062;2023-04-16T06:33:18;100060.94;;;9.71;83.71
57376;BME280;44805;45.048;5.062;2023-04-16T06:35:44;100067.84;;;9.63;83.57
57376;BME280;44805;45.048;5.062;2023-04-16T06:38:18;100071.03;;;9.66;82.87
57376;BME280;44805;45.048;5.062;2023-04-16T06:41:42;100060.69;;;9.84;81.59
57376;BME280;44805;45.048;5.062;2023-04-16T06:44:31;100067.06;;;9.91;80.59
57376;BME280;44805;45.048;5.062;2023-04-16T06:49:59;100072.84;;;9.75;81.35
57376;BME280;44805;45.048;5.062;2023-04-16T06:52:24;100072.31;;;9.91;80.48
57376;BME280;44805;45.048;5.062;2023-04-16T06:54:50;100072.31;;;9.91;80.94
57376;BME280;44805;45.048;5.062;2023-04-16T06:57:15;100078.72;;;9.98;80.64
57376;BME280;44805;45.048;5.062;2023-04-16T06:59:40;100069.97;;;9.88;81.37
57376;BME280;44805;45.048;5.062;2023-04-16T07:05:09;100074.25;;;9.89;80.82
57376;BME280;44805;45.048;5.062;2023-04-16T07:07:34;100070.78;;;9.89;80.19
57376;BME280;44805;45.048;5.062;2023-04-16T07:10:00;100077.97;;;9.87;80.48
57376;BME280;44805;45.048;5.062;2023-04-16T07:12:25;100075.09;;;9.80;80.48
57376;BME280;44805;45.048;5.062;2023-04-16T07:23:44;100082.06;;;10.10;80.39
57376;BME280;44805;45.048;5.062;2023-04-16T07:26:15;100080.09;;;10.03;79.84
57376;BME280;44805;45.048;5.062;2023-04-16T07:31:50;100081.75;;;9.94;80.08
57376;BME280;44805;45.048;5.062;2023-04-16T07:37:59;100087.59;;;10.17;78.42
57376;BME280;44805;45.048;5.062;2023-04-16T07:40:24;100090.09;;;10.18;78.21
57376;BME280;44805;45.048;5.062;2023-04-16T07:42:50;100076.00;;;10.29;76.88
57376;BME280;44805;45.048;5.062;2023-04-16T07:45:16;100086.94;;;10.44;77.75
57376;BME280;44805;45.048;5.062;2023-04-16T07:47:46;100080.16;;;10.41;75.82
57376;BME280;44805;45.048;5.062;2023-04-16T07:50:14;100095.38;;;10.48;75.97
57376;BME280;44805;45.048;5.062;2023-04-16T07:52:43;100088.47;;;10.66;75.40
57376;BME280;44805;45.048;5.062;2023-04-16T07:55:10;100089.94;;;10.88;74.71
57376;BME280;44805;45.048;5.062;2023-04-16T07:57:55;100078.47;;;10.70;74.31
57376;BME280;44805;45.048;5.062;2023-04-16T08:09:47;100091.47;;;10.81;73.10
57376;BME280;44805;45.048;5.062;2023-04-16T08:12:14;100102.56;;;10.84;73.20
57376;BME280;44805;45.048;5.062;2023-04-16T08:14:41;100068.47;;;10.83;72.90
57376;BME280;44805;45.048;5.062;2023-04-16T08:17:06;100098.81;;;10.87;73.01
57376;BME280;44805;45.048;5.062;2023-04-16T08:22:39;100095.78;;;11.29;72.25
57376;BME280;44805;45.048;5.062;2023-04-16T08:25:05;100097.94;;;11.43;72.34
57376;BME280;44805;45.048;5.062;2023-04-16T08:27:30;100102.47;;;11.61;70.69
57376;BME280;44805;45.048;5.062;2023-04-16T08:29:56;100105.63;;;11.64;69.41
57376;BME280;44805;45.048;5.062;2023-04-16T08:32:21;100108.56;;;11.61;69.18
57376;BME280;44805;45.048;5.062;2023-04-16T08:40:52;100127.91;;;12.07;67.96
57376;BME280;44805;45.048;5.062;2023-04-16T08:43:19;100129.03;;;12.05;66.60
57376;BME280;44805;45.048;5.062;2023-04-16T08:51:28;100143.66;;;12.63;64.39
57376;BME280;44805;45.048;5.062;2023-04-16T08:56:41;100139.88;;;13.09;65.61
57376;BME280;44805;45.048;5.062;2023-04-16T08:59:08;100142.06;;;13.14;63.20
57376;BME280;44805;45.048;5.062;2023-04-16T09:01:39;100144.91;;;12.76;64.42
57376;BME280;44805;45.048;5.062;2023-04-16T09:07:16;100143.91;;;12.95;63.12
57376;BME280;44805;45.048;5.062;2023-04-16T09:09:47;100139.03;;;12.82;65.95
57376;BME280;44805;45.048;5.062;2023-04-16T09:15:01;100154.50;;;13.21;73.82
57376;BME280;44805;45.048;5.062;2023-04-16T09:17:27;100153.38;;;13.50;78.83
57376;BME280;44805;45.048;5.062;2023-04-16T09:19:53;100142.41;;;13.37;71.64
57376;BME280;44805;45.048;5.062;2023-04-16T09:22:18;100147.03;;;13.43;65.33
57376;BME280;44805;45.048;5.062;2023-04-16T09:27:19;100142.28;;;13.20;63.95
57376;BME280;44805;45.048;5.062;2023-04-16T09:29:45;100149.63;;;13.09;63.18
57376;BME280;44805;45.048;5.062;2023-04-16T09:32:10;100153.22;;;13.25;64.18
57376;BME280;44805;45.048;5.062;2023-04-16T09:37:39;100145.66;;;13.57;62.56
57376;BME280;44805;45.048;5.062;2023-04-16T09:40:04;100154.78;;;13.71;62.36
57376;BME280;44805;45.048;5.062;2023-04-16T09:42:31;100139.00;;;13.87;66.63
57376;BME280;44805;45.048;5.062;2023-04-16T09:44:59;100139.72;;;14.14;73.69
57376;BME280;44805;45.048;5.062;2023-04-16T09:47:25;100140.31;;;13.91;59.23
57376;BME280;44805;45.048;5.062;2023-04-16T09:53:12;100142.03;;;14.08;59.93
57376;BME280;44805;45.048;5.062;2023-04-16T09:55:37;100143.88;;;13.74;57.29
57376;BME280;44805;45.048;5.062;2023-04-16T09:58:03;100140.28;;;13.75;57.59
57376;BME280;44805;45.048;5.062;2023-04-16T10:00:28;100144.47;;;13.94;56.84
57376;BME280;44805;45.048;5.062;2023-04-16T10:09:10;100143.06;;;14.16;54.91
57376;BME280;44805;45.048;5.062;2023-04-16T10:11:36;100135.84;;;14.83;55.89
57376;BME280;44805;45.048;5.062;2023-04-16T10:16:42;100137.50;;;14.68;54.50
57376;BME280;44805;45.048;5.062;2023-04-16T10:19:39;100143.97;;;14.57;54.03
57376;BME280;44805;45.048;5.062;2023-04-16T10:24:37;100129.22;;;14.54;53.81
57376;BME280;44805;45.048;5.062;2023-04-16T10:42:29;100127.56;;;14.45;53.01
57376;BME280;44805;45.048;5.062;2023-04-16T10:44:58;100134.84;;;14.43;51.62
57376;BME280;44805;45.048;5.062;2023-04-16T10:47:27;100123.91;;;14.46;49.82
57376;BME280;44805;45.048;5.062;2023-04-16T10:49:59;100124.94;;;14.53;48.50
57376;BME280;44805;45.048;5.062;2023-04-16T10:52:24;100136.63;;;14.34;48.43
57376;BME280;44805;45.048;5.062;2023-04-16T10:54:53;100127.03;;;14.50;50.94
57376;BME280;44805;45.048;5.062;2023-04-16T10:57:23;100122.78;;;14.90;49.53
57376;BME280;44805;45.048;5.062;2023-04-16T10:59:58;100111.13;;;15.15;50.31
57376;BME280;44805;45.048;5.062;2023-04-16T11:02:27;100115.16;;;14.87;51.42
57376;BME280;44805;45.048;5.062;2023-04-16T11:08:00;100117.97;;;14.69;50.64
57376;BME280;44805;45.048;5.062;2023-04-16T11:10:57;100110.00;;;14.85;50.11
57376;BME280;44805;45.048;5.062;2023-04-16T11:15:59;100119.78;;;14.93;50.58
57376;BME280;44805;45.048;5.062;2023-04-16T11:22:03;100110.44;;;15.86;50.56
57376;BME280;44805;45.048;5.062;2023-04-16T11:46:41;100101.38;;;14.42;53.60
57376;BME280;44805;45.048;5.062;2023-04-16T12:24:10;100096.19;;;13.57;59.52
57376;BME280;44805;45.048;5.062;2023-04-16T12:30:08;100097.22;;;13.64;58.66
57376;BME280;44805;45.048;5.062;2023-04-16T12:32:45;100092.38;;;13.52;59.71
57376;BME280;44805;45.048;5.062;2023-04-16T12:35:32;100095.53;;;14.06;58.91
57376;BME280;44805;45.048;5.062;2023-04-16T13:00:43;100123.09;;;12.56;61.64
57376;BME280;44805;45.048;5.062;2023-04-16T13:04:01;100123.81;;;12.85;62.25
57376;BME280;44805;45.048;5.062;2023-04-16T13:15:49;100114.41;;;12.64;62.30
57376;BME280;44805;45.048;5.062;2023-04-16T13:20:44;100107.59;;;12.79;62.83
57376;BME280;44805;45.048;5.062;2023-04-16T13:23:10;100111.91;;;12.80;62.68
57376;BME280;44805;45.048;5.062;2023-04-16T13:25:35;100109.44;;;12.61;63.06
57376;BME280;44805;45.048;5.062;2023-04-16T13:28:01;100105.22;;;12.68;63.31
57376;BME280;44805;45.048;5.062;2023-04-16T13:30:26;100112.53;;;12.74;63.32
57376;BME280;44805;45.048;5.062;2023-04-16T13:32:53;100105.78;;;12.98;62.93
57376;BME280;44805;45.048;5.062;2023-04-16T13:35:31;100091.69;;;13.15;62.54
57376;BME280;44805;45.048;5.062;2023-04-16T13:37:56;100098.63;;;13.16;62.72
57376;BME280;44805;45.048;5.062;2023-04-16T13:40:21;100105.16;;;13.30;61.77
57376;BME280;44805;45.048;5.062;2023-04-16T13:42:46;100102.38;;;13.32;61.06
57376;BME280;44805;45.048;5.062;2023-04-16T13:45:12;100092.84;;;12.95;61.68
57376;BME280;44805;45.048;5.062;2023-04-16T13:47:38;100089.53;;;13.19;61.27
57376;BME280;44805;45.048;5.062;2023-04-16T13:50:04;100100.03;;;12.85;62.49
57376;BME280;44805;45.048;5.062;2023-04-16T13:52:29;100100.81;;;12.77;61.99
57376;BME280;44805;45.048;5.062;2023-04-16T13:54:56;100093.69;;;12.33;62.39
57376;BME280;44805;45.048;5.062;2023-04-16T13:57:21;100071.97;;;12.40;62.94
57376;BME280;44805;45.048;5.062;2023-04-16T13:59:46;100083.72;;;12.45;62.71
57376;BME280;44805;45.048;5.062;2023-04-16T14:02:12;100072.53;;;12.51;62.75
57376;BME280;44805;45.048;5.062;2023-04-16T14:04:56;100074.97;;;12.63;62.28
57376;BME280;44805;45.048;5.062;2023-04-16T14:07:21;100069.59;;;12.72;63.44
57376;BME280;44805;45.048;5.062;2023-04-16T14:09:50;100077.97;;;12.94;61.73
57376;BME280;44805;45.048;5.062;2023-04-16T14:12:15;100055.81;;;12.87;61.35
57376;BME280;44805;45.048;5.062;2023-04-16T14:14:40;100061.72;;;12.80;62.06
57376;BME280;44805;45.048;5.062;2023-04-16T14:17:11;100056.56;;;12.79;62.87
57376;BME280;44805;45.048;5.062;2023-04-16T14:23:13;100056.75;;;12.77;62.09
57376;BME280;44805;45.048;5.062;2023-04-16T14:25:43;100062.44;;;12.91;63.33
57376;BME280;44805;45.048;5.062;2023-04-16T14:28:13;100051.81;;;13.09;62.45
57376;BME280;44805;45.048;5.062;2023-04-16T14:30:48;100075.81;;;13.15;62.40
57376;BME280;44805;45.048;5.062;2023-04-16T14:33:17;100058.66;;;12.93;62.36
57376;BME280;44805;45.048;5.062;2023-04-16T14:38:13;100073.53;;;12.94;63.76
57376;BME280;44805;45.048;5.062;2023-04-16T14:40:42;100059.75;;;12.82;63.64
57376;BME280;44805;45.048;5.062;2023-04-16T14:43:10;100076.53;;;12.73;64.56
57376;BME280;44805;45.048;5.062;2023-04-16T14:45:36;100078.72;;;12.78;64.11
57376;BME280;44805;45.048;5.062;2023-04-16T14:48:04;100065.59;;;12.68;64.37
57376;BME280;44805;45.048;5.062;2023-04-16T14:53:32;100073.91;;;12.55;64.77
57376;BME280;44805;45.048;5.062;2023-04-16T14:55:58;100077.06;;;12.59;64.23
57376;BME280;44805;45.048;5.062;2023-04-16T14:58:24;100070.91;;;12.14;65.87
57376;BME280;44805;45.048;5.062;2023-04-16T15:00:49;100068.66;;;12.37;65.33
57376;BME280;44805;45.048;5.062;2023-04-16T15:03:15;100059.81;;;12.47;65.64
57376;BME280;44805;45.048;5.062;2023-04-16T15:08:44;100063.50;;;12.18;67.00
57376;BME280;44805;45.048;5.062;2023-04-16T15:11:09;100062.94;;;12.06;67.34
57376;BME280;44805;45.048;5.062;2023-04-16T15:13:35;100070.38;;;12.11;68.19
57376;BME280;44805;45.048;5.062;2023-04-16T15:16:00;100053.50;;;12.22;67.64
57376;BME280;44805;45.048;5.062;2023-04-16T15:18:26;100070.91;;;12.50;66.61
57376;BME280;44805;45.048;5.062;2023-04-16T15:23:56;100055.38;;;12.29;66.76
57376;BME280;44805;45.048;5.062;2023-04-16T15:26:21;100045.66;;;12.12;68.02
57376;BME280;44805;45.048;5.062;2023-04-16T15:28:47;100046.53;;;12.38;67.40
57376;BME280;44805;45.048;5.062;2023-04-16T15:31:13;100053.06;;;12.70;67.18
57376;BME280;44805;45.048;5.062;2023-04-16T15:33:38;100058.19;;;12.98;66.32
57376;BME280;44805;45.048;5.062;2023-04-16T15:36:13;100051.69;;;12.66;65.75
57376;BME280;44805;45.048;5.062;2023-04-16T15:38:39;100059.28;;;12.43;66.39
57376;BME280;44805;45.048;5.062;2023-04-16T15:41:05;100062.59;;;12.45;66.82
57376;BME280;44805;45.048;5.062;2023-04-16T15:43:31;100058.97;;;12.46;66.59
57376;BME280;44805;45.048;5.062;2023-04-16T15:45:56;100061.13;;;12.25;65.94
57376;BME280;44805;45.048;5.062;2023-04-16T15:48:21;100061.34;;;12.31;66.96
57376;BME280;44805;45.048;5.062;2023-04-16T15:53:56;100063.75;;;12.25;66.84
57376;BME280;44805;45.048;5.062;2023-04-16T15:56:22;100051.38;;;12.07;67.82
57376;BME280;44805;45.048;5.062;2023-04-16T15:58:47;100049.34;;;12.19;67.15
57376;BME280;44805;45.048;5.062;2023-04-16T16:01:12;100059.66;;;12.30;67.39
57376;BME280;44805;45.048;5.062;2023-04-16T16:03:38;100063.97;;;12.13;68.27
57376;BME280;44805;45.048;5.062;2023-04-16T16:11:51;100049.88;;;12.05;68.45
57376;BME280;44805;45.048;5.062;2023-04-16T16:14:20;100048.28;;;11.94;69.43
57376;BME280;44805;45.048;5.062;2023-04-16T16:16:59;100059.59;;;12.40;69.08
57376;BME280;44805;45.048;5.062;2023-04-16T16:19:24;100047.84;;;11.99;68.82
57376;BME280;44805;45.048;5.062;2023-04-16T16:21:51;100046.25;;;12.06;68.81
57376;BME280;44805;45.048;5.062;2023-04-16T16:24:18;100046.41;;;12.22;68.87
57376;BME280;44805;45.048;5.062;2023-04-16T16:26:43;100048.81;;;12.33;68.12
57376;BME280;44805;45.048;5.062;2023-04-16T16:29:14;100057.31;;;12.45;68.41
57376;BME280;44805;45.048;5.062;2023-04-16T16:31:42;100057.09;;;12.38;68.93
57376;BME280;44805;45.048;5.062;2023-04-16T16:37:21;100055.53;;;12.28;68.97
57376;BME280;44805;45.048;5.062;2023-04-16T16:39:46;100040.50;;;11.92;69.40
57376;BME280;44805;45.048;5.062;2023-04-16T16:42:11;100051.84;;;11.75;70.54
57376;BME280;44805;45.048;5.062;2023-04-16T16:44:38;100050.44;;;11.53;71.34
57376;BME280;44805;45.048;5.062;2023-04-16T16:47:03;100065.44;;;11.52;71.62
57376;BME280;44805;45.048;5.062;2023-04-16T16:49:29;100045.31;;;11.24;72.14
57376;BME280;44805;45.048;5.062;2023-04-16T16:55:16;100050.00;;;11.30;73.08
57376;BME280;44805;45.048;5.062;2023-04-16T16:57:46;100054.31;;;11.21;73.68
57376;BME280;44805;45.048;5.062;2023-04-16T17:00:11;100065.19;;;11.08;74.26
57376;BME280;44805;45.048;5.062;2023-04-16T17:02:43;100059.13;;;10.98;74.75
57376;BME280;44805;45.048;5.062;2023-04-16T17:05:31;100051.91;;;11.00;74.87
57376;BME280;44805;45.048;5.062;2023-04-16T17:07:57;100055.66;;;10.98;74.82
57376;BME280;44805;45.048;5.062;2023-04-16T17:10:22;100074.50;;;11.13;74.26
57376;BME280;44805;45.048;5.062;2023-04-16T17:12:48;100070.88;;;11.14;74.34
57376;BME280;44805;45.048;5.062;2023-04-16T17:15:14;100075.50;;;11.29;74.47
57376;BME280;44805;45.048;5.062;2023-04-16T17:17:51;100075.19;;;11.15;74.62
57376;BME280;44805;45.048;5.062;2023-04-16T17:23:28;100070.56;;;11.17;74.64
57376;BME280;44805;45.048;5.062;2023-04-16T17:25:53;100076.75;;;11.35;74.23
57376;BME280;44805;45.048;5.062;2023-04-16T17:28:19;100076.94;;;11.24;74.10
57376;BME280;44805;45.048;5.062;2023-04-16T17:30:49;100076.63;;;11.27;73.46
57376;BME280;44805;45.048;5.062;2023-04-16T17:33:14;100082.72;;;11.00;74.40
57376;BME280;44805;45.048;5.062;2023-04-16T17:35:41;100076.31;;;11.02;74.40
57376;BME280;44805;45.048;5.062;2023-04-16T17:38:06;100077.16;;;10.93;74.83
57376;BME280;44805;45.048;5.062;2023-04-16T17:40:31;100076.16;;;11.04;74.45